Airfield :
LOGIN :

Register | Disclaimer

   EN    FR    IT 

 










Legend :    VFR   Marginal VFR   IFR   Intensive IFR   Very Intensive IFR
Visi :
Ceiling :
>= 8 km
>= 3000ft
5 to 8 km
1000 to 3000 ft
1500m to 5 km
500 to 1000 ft
800 to 1500m
200 to 500 ft
< 800m
< 200 ft
Symbols :   Thunderstorms  Fog  Heavy snow  Heavy precipitations  Wind > 20 kt
SIGMETs :     Misc.  Thunderstorms  Icing  Turbulence  Mountain Waves  Volcanic Ashes







- Airport Elevation : 416 ft
- IATA code : OVD


LEAS - Asturias

CURRENT METAR :
  • 250600Z 13003KT 080V160 CAVOK 17/15 Q1016 NOSIG

EXPIRED METARs :
  • 250530Z 12003KT 070V160 CAVOK 16/15 Q1016 NOSIG
  • 250500Z 13004KT 080V170 CAVOK 16/15 Q1016 NOSIG
  • 250430Z 16003KT CAVOK 15/14 Q1016 NOSIG
  • 250400Z 14003KT 080V170 CAVOK 15/14 Q1016 NOSIG
  • 250330Z AUTO 11003KT 080V150 4700 BR NSC 15/15 Q1016

TAF TAF LEAS
Valid from the 25 at 03:00 until the 26 at 03:00 UTC


250200Z 2503/2603 14007KT CAVOK TX24/2515Z TN16/2504Z
BECMG 2509/2512 08010KT
TEMPO 2511/2518 08015G25KT
PROB40
TEMPO 2512/2518 SCT035TCU
BECMG 2520/2522 VRB04KT
PROB40
TEMPO 2521/2603 3000 BR
No reported NOTAMs for that airfield.
1 SIGMET reported for the Madrid FIR (LECM) :
 
Embedded thunderstorms
LECM SIGMET 2 VALID 250500/250700 LEVA
LECM MADRID FIR/UIR EMBD TS OBS AT 0501Z W OF LINE N4157 W00935 - N4501 W00935 TOP FL450 MOV NW 20KT NC=



MET'MAP, your aeronautical weather chart ! - Copyright ORBIFLY December 2007 - Disclaimer

ORBIFLY MET'MAP TEAM :

Programming & Development : Alexandra Zaïnal
Concept & Development : Baudouin d'Aumeries
Co-Development & Prog : Marc-Olivier Méhu
Technical & hardware support : Manuel Goepfert

Contact : metmap@orbifly.com




SOURCES & CREDITS :

   NOAA